Time;durP1;ratioP1;P1;durP2;ratioP2;P2;SDS_P1;SDS_P2;PMS_P1;PMS_P2;Temp;Humidity;BMP_temperature;BMP_pressure;BME280_temperature;BME280_humidity;BME280_pressure;Samples;Min_cycle;Max_cycle;Signal;HPM_P1;HPM_P2
2022/12/06 00:03:24;;;;;;;48.80;25.87;;;3.00;99.90;;;;;;10132505;29;20252;-85
2022/12/06 00:08:27;;;;;;;63.10;32.53;;;3.80;99.90;;;;;;10130900;29;20702;-85
2022/12/06 00:13:30;;;;;;;59.17;32.07;;;4.90;99.90;;;;;;10131020;29;20240;-85
2022/12/06 00:18:35;;;;;;;80.63;40.43;;;5.60;99.90;;;;;;10130826;29;20244;-84
2022/12/06 00:23:40;;;;;;;69.90;37.80;;;5.70;99.90;;;;;;10115630;29;20268;-85
2022/12/06 00:28:43;;;;;;;81.27;40.57;;;5.70;99.90;;;;;;10132146;29;20619;-85
2022/12/06 00:33:46;;;;;;;64.43;35.33;;;6.00;99.90;;;;;;10130880;29;20240;-85
2022/12/06 00:38:50;;;;;;;76.17;39.90;;;6.10;99.90;;;;;;10130501;29;20249;-85
2022/12/06 00:43:53;;;;;;;74.13;39.77;;;6.20;99.90;;;;;;10130211;29;20283;-85
2022/12/06 00:48:57;;;;;;;66.23;34.37;;;6.30;99.90;;;;;;10130515;29;20276;-86
2022/12/06 00:53:59;;;;;;;62.07;34.27;;;6.50;99.90;;;;;;10084916;29;20218;-85
2022/12/06 00:59:03;;;;;;;70.00;39.40;;;6.50;99.90;;;;;;10128201;29;20242;-85
2022/12/06 01:04:06;;;;;;;67.53;36.37;;;6.60;99.90;;;;;;10123716;29;20722;-85
2022/12/06 01:09:09;;;;;;;71.10;38.60;;;6.70;99.90;;;;;;10129548;29;20668;-84
2022/12/06 01:14:12;;;;;;;73.43;40.50;;;6.60;99.90;;;;;;10130119;29;20308;-85
2022/12/06 01:19:14;;;;;;;68.50;38.23;;;6.50;99.90;;;;;;10129360;29;20689;-85
2022/12/06 01:24:17;;;;;;;74.63;42.27;;;6.50;99.90;;;;;;10128842;29;20268;-84
2022/12/06 01:29:19;;;;;;;72.87;40.87;;;6.80;99.90;;;;;;10128841;29;20241;-85
2022/12/06 01:34:22;;;;;;;81.20;41.77;;;6.70;99.90;;;;;;10130071;29;20782;-85
2022/12/06 01:39:25;;;;;;;60.50;35.17;;;7.00;99.90;;;;;;10129854;29;20269;-84
2022/12/06 01:44:49;;;;;;;75.87;42.37;;;6.90;99.90;;;;;;10095195;29;20331;-85
2022/12/06 01:50:19;;;;;;;78.33;42.97;;;6.90;99.90;;;;;;10112759;29;20295;-84
2022/12/06 01:55:26;;;;;;;54.80;30.97;;;6.80;99.90;;;;;;10128642;29;20320;-84
2022/12/06 02:00:28;;;;;;;72.80;39.63;;;7.00;99.90;;;;;;10128551;29;20713;-85
2022/12/06 02:05:35;;;;;;;54.87;31.63;;;7.10;99.90;;;;;;10118783;29;20672;-85
2022/12/06 02:10:42;;;;;;;65.20;36.77;;;7.60;99.90;;;;;;10129510;29;20288;-85
2022/12/06 02:15:56;;;;;;;66.53;34.33;;;;;;;;;;10127802;29;20246;-85
2022/12/06 02:21:12;;;;;;;60.90;32.70;;;7.70;99.90;;;;;;10105226;29;20901;-85
2022/12/06 02:26:28;;;;;;;58.47;31.80;;;7.60;99.90;;;;;;10113819;29;20255;-84
2022/12/06 02:31:40;;;;;;;70.77;37.03;;;7.60;99.90;;;;;;10113882;29;20218;-85
2022/12/06 02:36:43;;;;;;;54.80;28.70;;;7.70;99.90;;;;;;10116593;29;20238;-85
2022/12/06 02:42:04;;;;;;;69.90;35.40;;;7.30;99.90;;;;;;10115545;29;20320;-84
2022/12/06 02:47:10;;;;;;;60.63;32.40;;;7.30;99.90;;;;;;10113657;29;20651;-84
2022/12/06 02:52:13;;;;;;;61.83;31.77;;;7.80;99.90;;;;;;10115777;29;20236;-84
2022/12/06 02:57:22;;;;;;;63.13;31.70;;;7.80;99.90;;;;;;10119130;29;20296;-85
2022/12/06 03:02:24;;;;;;;66.90;34.83;;;8.00;99.90;;;;;;10123883;29;20299;-85
2022/12/06 03:07:33;;;;;;;69.90;36.87;;;7.80;99.90;;;;;;10111929;29;20249;-84
2022/12/06 03:12:35;;;;;;;74.13;37.80;;;7.80;99.90;;;;;;10117279;29;20626;-84
2022/12/06 03:18:02;;;;;;;69.10;36.57;;;7.60;99.90;;;;;;10104847;29;20236;-83
2022/12/06 03:23:06;;;;;;;78.90;39.43;;;7.30;99.90;;;;;;10138351;29;20640;-84
2022/12/06 03:28:12;;;;;;;84.03;39.03;;;7.00;99.90;;;;;;10107554;29;20668;-84
2022/12/06 03:33:18;;;;;;;92.50;42.93;;;6.90;99.90;;;;;;10121360;29;20299;-84
2022/12/06 03:38:26;;;;;;;85.40;40.77;;;6.90;99.90;;;;;;10141840;29;20247;-85
2022/12/06 03:43:29;;;;;;;78.13;39.43;;;7.00;99.90;;;;;;10115824;29;20725;-85
2022/12/06 03:48:36;;;;;;;89.13;43.33;;;6.80;99.90;;;;;;10109488;29;20694;-86
2022/12/06 03:53:47;;;;;;;87.20;43.47;;;6.70;99.90;;;;;;10111864;29;20287;-85
2022/12/06 03:58:50;;;;;;;95.07;43.47;;;6.90;99.90;;;;;;10110568;29;20239;-85
2022/12/06 04:03:52;;;;;;;64.90;32.17;;;7.20;99.90;;;;;;10121464;29;21007;-84
2022/12/06 04:09:51;;;;;;;88.67;43.20;;;7.50;99.90;;;;;;10116746;29;20238;-85
2022/12/06 04:14:20;;;;;;;92.27;43.07;;;7.50;99.90;;;;;;10112077;29;20229;-84
2022/12/06 04:19:23;;;;;;;63.13;32.60;;;7.40;99.90;;;;;;10121728;29;20307;-85
2022/12/06 04:24:25;;;;;;;94.00;41.93;;;7.60;99.90;;;;;;10106447;29;20253;-84
2022/12/06 04:40:10;;;;;;;109.33;47.67;;;7.00;99.90;;;;;;10129811;29;20654;-84
2022/12/06 04:45:12;;;;;;;95.57;43.63;;;6.80;99.90;;;;;;10128903;29;20275;-84
2022/12/06 04:50:15;;;;;;;106.40;46.70;;;7.10;99.90;;;;;;10130078;29;20243;-84
2022/12/06 04:55:17;;;;;;;99.97;47.07;;;7.40;99.90;;;;;;10127439;29;20253;-84
2022/12/06 05:00:20;;;;;;;111.00;46.77;;;7.00;99.90;;;;;;10130178;29;20272;-84
2022/12/06 05:05:23;;;;;;;98.00;46.43;;;6.60;99.90;;;;;;10128420;29;20269;-85
2022/12/06 05:10:26;;;;;;;107.97;47.33;;;6.80;99.90;;;;;;10128900;29;20692;-84
2022/12/06 05:15:29;;;;;;;96.57;44.93;;;6.70;99.90;;;;;;10129225;29;20243;-84
2022/12/06 05:20:31;;;;;;;94.60;44.07;;;6.70;99.90;;;;;;10129762;29;20684;-85
2022/12/06 05:25:33;;;;;;;99.67;46.57;;;6.70;99.90;;;;;;10127611;29;20263;-85
2022/12/06 05:30:36;;;;;;;100.97;47.00;;;7.00;99.90;;;;;;10128306;29;20283;-85
2022/12/06 05:35:39;;;;;;;88.37;41.93;;;7.10;99.90;;;;;;10129264;29;20319;-85
2022/12/06 05:40:42;;;;;;;100.83;47.67;;;7.10;99.90;;;;;;10129424;29;20236;-85
2022/12/06 05:45:45;;;;;;;96.90;47.93;;;6.90;99.90;;;;;;10126336;29;20279;-84
2022/12/06 05:50:48;;;;;;;71.27;35.93;;;7.00;99.90;;;;;;10127088;29;20244;-85
2022/12/06 05:55:51;;;;;;;93.30;44.97;;;7.20;99.90;;;;;;10135475;29;20240;-85
2022/12/06 06:00:53;;;;;;;59.90;30.17;;;7.70;99.90;;;;;;10150281;29;20709;-86
2022/12/06 06:05:58;;;;;;;63.97;30.53;;;7.60;99.90;;;;;;10136510;29;20260;-85
2022/12/06 06:11:01;;;;;;;51.63;27.47;;;8.10;99.90;;;;;;10135746;29;20260;-86
2022/12/06 06:16:04;;;;;;;53.70;28.33;;;8.10;99.90;;;;;;10135840;29;20314;-85
2022/12/06 06:21:06;;;;;;;68.70;32.13;;;8.00;99.90;;;;;;10135910;29;20239;-85
2022/12/06 06:26:10;;;;;;;56.63;29.73;;;8.40;99.90;;;;;;10135051;29;20788;-85
2022/12/06 06:31:14;;;;;;;65.13;28.80;;;8.90;99.90;;;;;;10134647;29;20294;-85
2022/12/06 06:36:16;;;;;;;58.63;32.87;;;8.80;99.90;;;;;;10134936;29;20250;-85
2022/12/06 06:41:19;;;;;;;60.87;28.57;;;9.40;99.90;;;;;;10127164;29;20243;-84
2022/12/06 06:46:21;;;;;;;67.33;31.10;;;9.60;99.90;;;;;;10134833;29;20733;-84
2022/12/06 06:51:24;;;;;;;72.73;34.73;;;9.60;99.90;;;;;;10134560;29;20236;-84
2022/12/06 06:56:26;;;;;;;78.13;35.97;;;9.20;99.90;;;;;;10099242;29;20239;-84
2022/12/06 07:01:29;;;;;;;60.63;29.97;;;9.20;99.90;;;;;;10149849;29;20251;-84
2022/12/06 07:06:31;;;;;;;50.87;25.03;;;8.50;99.90;;;;;;10132494;29;20671;-84
2022/12/06 07:11:34;;;;;;;64.47;34.37;;;8.30;99.90;;;;;;10134026;29;20244;-84
2022/12/06 07:16:37;;;;;;;78.20;36.63;;;7.80;99.90;;;;;;10134088;29;20638;-84
2022/12/06 07:21:39;;;;;;;50.40;27.60;;;7.60;99.90;;;;;;10133380;29;20247;-84
2022/12/06 07:26:42;;;;;;;64.37;31.97;;;7.90;99.90;;;;;;10120109;29;20260;-84
2022/12/06 07:31:44;;;;;;;61.80;32.77;;;8.00;99.90;;;;;;10128287;29;20632;-84
2022/12/06 07:36:46;;;;;;;67.20;32.37;;;8.10;99.90;;;;;;10115011;29;20244;-84
2022/12/06 07:47:16;;;;;;;58.10;29.77;;;7.70;99.90;;;;;;10128508;29;20264;-87
2022/12/06 07:52:19;;;;;;;57.10;28.23;;;9.50;99.90;;;;;;10131267;29;20274;-87
2022/12/06 07:57:21;;;;;;;54.43;27.33;;;9.30;99.90;;;;;;10132819;29;20247;-87
2022/12/06 08:02:26;;;;;;;51.97;28.83;;;8.80;99.90;;;;;;10132596;29;20244;-87
2022/12/06 08:07:28;;;;;;;54.07;27.23;;;8.30;99.90;;;;;;10132607;29;20263;-87
2022/12/06 08:12:31;;;;;;;56.87;27.83;;;7.50;99.90;;;;;;10130673;29;20702;-87
2022/12/06 08:17:33;;;;;;;52.57;27.63;;;7.40;99.90;;;;;;10114675;29;20393;-87
2022/12/06 08:22:36;;;;;;;52.03;26.57;;;7.70;99.90;;;;;;10130757;29;20769;-87
2022/12/06 08:27:38;;;;;;;51.10;27.20;;;7.90;99.90;;;;;;10130428;29;20725;-86
2022/12/06 08:32:41;;;;;;;46.37;23.30;;;7.80;99.90;;;;;;10127681;29;20692;-85
2022/12/06 08:37:43;;;;;;;50.43;25.13;;;7.80;99.90;;;;;;10128243;29;20243;-86
2022/12/06 08:42:45;;;;;;;48.90;25.57;;;8.10;99.90;;;;;;10129928;29;20894;-87
2022/12/06 08:47:48;;;;;;;51.53;27.03;;;9.00;99.90;;;;;;10130783;29;20333;-86
2022/12/06 08:52:50;;;;;;;42.40;24.80;;;8.70;99.90;;;;;;10130976;29;20238;-86
2022/12/06 08:57:53;;;;;;;52.50;26.50;;;8.50;99.90;;;;;;10130507;29;20242;-87
2022/12/06 09:02:55;;;;;;;45.10;25.17;;;7.90;99.90;;;;;;10130705;29;20622;-87
2022/12/06 09:07:58;;;;;;;45.40;23.50;;;7.50;99.90;;;;;;10130172;29;20259;-87
2022/12/06 09:13:02;;;;;;;38.10;22.67;;;8.00;99.90;;;;;;10129133;29;20212;-87
2022/12/06 09:18:04;;;;;;;43.10;22.37;;;8.20;99.90;;;;;;10129956;29;20238;-87
2022/12/06 09:23:07;;;;;;;41.60;22.83;;;8.30;99.90;;;;;;10129938;29;20223;-86
2022/12/06 09:28:10;;;;;;;39.47;22.00;;;8.30;99.90;;;;;;10129418;29;20671;-86
2022/12/06 09:33:12;;;;;;;49.70;23.97;;;8.60;99.90;;;;;;10129130;29;20637;-87
2022/12/06 09:38:16;;;;;;;41.80;22.17;;;8.50;99.90;;;;;;10112667;29;20945;-86
2022/12/06 09:43:35;;;;;;;40.33;21.77;;;8.20;99.90;;;;;;10128230;29;20299;-87
2022/12/06 09:48:56;;;;;;;47.97;24.87;;;8.20;99.90;;;;;;10128630;29;20947;-86
2022/12/06 09:54:20;;;;;;;45.03;24.57;;;8.30;99.90;;;;;;10110696;29;20275;-86
2022/12/06 09:59:54;;;;;;;55.17;29.67;;;8.30;99.90;;;;;;10107081;29;20774;-86
2022/12/06 10:05:13;;;;;;;44.77;24.53;;;8.30;99.90;;;;;;10107832;29;20695;-86
2022/12/06 10:10:27;;;;;;;39.23;22.10;;;8.00;99.90;;;;;;10108392;29;20316;-86
2022/12/06 10:16:05;;;;;;;41.83;23.47;;;8.40;99.90;;;;;;10107654;29;20239;-86
2022/12/06 10:21:14;;;;;;;53.20;29.63;;;8.60;99.90;;;;;;10123641;29;20630;-88
2022/12/06 10:26:27;;;;;;;56.70;27.13;;;9.00;99.90;;;;;;10128152;29;20657;-87
2022/12/06 10:31:45;;;;;;;52.70;27.00;;;9.30;99.90;;;;;;10127685;29;20267;-88
2022/12/06 10:37:27;;;;;;;42.57;23.37;;;9.30;99.90;;;;;;10127927;29;20280;-89
2022/12/06 10:42:41;;;;;;;54.70;26.53;;;9.10;99.90;;;;;;10094246;29;20244;-88
2022/12/06 10:47:44;;;;;;;52.87;26.60;;;9.10;99.90;;;;;;10101413;29;20319;-88
2022/12/06 10:53:11;;;;;;;48.63;25.00;;;9.70;99.90;;;;;;10117468;29;20283;-88
2022/12/06 10:58:36;;;;;;;48.10;25.30;;;10.10;99.90;;;;;;10131554;29;20309;-89
2022/12/06 11:03:41;;;;;;;43.03;22.33;;;10.70;99.90;;;;;;10132708;29;20307;-88
2022/12/06 11:08:58;;;;;;;39.87;22.80;;;11.80;99.90;;;;;;10135468;29;20270;-88
2022/12/06 11:14:31;;;;;;;50.53;25.90;;;11.50;99.90;;;;;;10145144;29;20227;-89
2022/12/06 11:19:39;;;;;;;40.13;24.27;;;11.80;99.90;;;;;;10149895;29;20290;-88
2022/12/06 11:25:05;;;;;;;42.87;24.27;;;11.80;99.90;;;;;;10149768;29;20251;-89
2022/12/06 11:30:18;;;;;;;40.40;22.37;;;11.90;99.90;;;;;;10145972;29;20271;-88
2022/12/06 11:35:25;;;;;;;49.87;27.07;;;11.50;99.90;;;;;;10143434;29;20268;-88
2022/12/06 11:40:42;;;;;;;47.70;24.37;;;11.70;99.90;;;;;;10133344;29;20239;-88
2022/12/06 11:45:47;;;;;;;47.43;24.47;;;11.50;99.90;;;;;;10135992;29;20792;-88
2022/12/06 11:50:51;;;;;;;41.00;23.60;;;11.80;99.90;;;;;;10145549;29;20693;-90
2022/12/06 11:56:08;;;;;;;41.93;23.70;;;11.90;99.90;;;;;;10147506;29;20235;-88
2022/12/06 12:01:13;;;;;;;45.10;24.00;;;11.90;99.90;;;;;;10147387;29;20246;-89
2022/12/06 12:06:26;;;;;;;44.80;23.37;;;12.20;99.90;;;;;;10137438;29;20252;-87
2022/12/06 12:11:31;;;;;;;40.53;22.47;;;12.50;99.90;;;;;;10144770;29;20263;-88
2022/12/06 12:16:41;;;;;;;38.17;22.53;;;12.60;99.90;;;;;;10139357;29;20240;-87
2022/12/06 12:21:44;;;;;;;40.70;23.57;;;12.60;99.90;;;;;;10146759;29;20636;-90
2022/12/06 12:26:54;;;;;;;42.43;23.73;;;11.50;99.90;;;;;;10153337;29;20326;-88
2022/12/06 12:31:58;;;;;;;43.97;23.73;;;10.90;99.90;;;;;;10143694;29;20295;-86
2022/12/06 12:37:03;;;;;;;37.40;22.33;;;11.30;99.90;;;;;;10127625;29;20244;-86
2022/12/06 12:42:25;;;;;;;39.10;22.67;;;12.00;99.90;;;;;;10153018;29;20917;-86
2022/12/06 12:47:27;;;;;;;36.00;21.53;;;12.00;99.90;;;;;;10144657;29;20259;-84
2022/12/06 12:52:36;;;;;;;31.90;17.93;;;11.40;99.90;;;;;;10137712;29;20237;-83
2022/12/06 12:57:40;;;;;;;30.47;18.97;;;11.90;99.90;;;;;;10148055;29;20239;-83
2022/12/06 13:02:46;;;;;;;35.27;18.50;;;11.30;99.90;;;;;;10135902;29;20232;-83
2022/12/06 13:07:54;;;;;;;29.47;18.13;;;11.40;99.90;;;;;;10133790;29;20266;-83
2022/12/06 13:13:03;;;;;;;32.37;19.57;;;11.90;99.90;;;;;;10143034;29;20247;-83
2022/12/06 13:18:12;;;;;;;33.20;18.63;;;11.50;99.90;;;;;;10142691;29;20232;-83
2022/12/06 13:23:22;;;;;;;33.87;20.97;;;11.50;99.90;;;;;;10145474;29;20771;-83
2022/12/06 13:28:32;;;;;;;37.20;21.57;;;11.40;99.90;;;;;;10134187;29;20260;-83
2022/12/06 13:33:38;;;;;;;33.57;21.87;;;11.20;99.90;;;;;;10139044;29;20243;-83
2022/12/06 13:38:41;;;;;;;32.40;18.30;;;11.00;99.90;;;;;;10145550;29;20239;-83
2022/12/06 13:43:43;;;;;;;24.90;16.50;;;9.90;99.90;;;;;;10148190;29;20263;-82
2022/12/06 13:49:04;;;;;;;35.10;18.97;;;10.60;99.90;;;;;;10149468;29;20300;-83
2022/12/06 13:54:12;;;;;;;31.63;18.87;;;10.70;99.90;;;;;;10141328;29;20239;-83
2022/12/06 14:02:52;;;;;;;32.60;20.17;;;9.70;99.90;;;;;;10566180;27;20558;-83
2022/12/06 14:07:56;;;;;;;29.87;17.77;;;8.80;99.90;;;;;;10494459;28;20768;-82
2022/12/06 14:13:00;;;;;;;26.53;16.70;;;10.40;99.90;;;;;;10522480;28;20770;-82
2022/12/06 14:18:02;;;;;;;28.80;16.57;;;11.20;99.90;;;;;;10523054;28;20249;-82
2022/12/06 14:23:29;;;;;;;25.70;16.20;;;11.60;99.90;;;;;;10527280;28;20662;-82
2022/12/06 14:28:34;;;;;;;29.93;17.60;;;11.60;99.90;;;;;;10544361;28;20285;-82
2022/12/06 14:33:38;;;;;;;24.13;16.30;;;11.20;99.90;;;;;;10525516;28;20237;-81
2022/12/06 14:38:41;;;;;;;25.03;16.07;;;11.40;99.90;;;;;;10524454;28;20261;-83
2022/12/06 14:43:46;;;;;;;26.53;16.77;;;11.90;99.90;;;;;;10562304;28;20208;-86
2022/12/06 14:54:32;;;;;;;23.93;15.83;;;11.80;99.90;;;;;;10567236;28;20228;-86
2022/12/06 14:59:35;;;;;;;25.93;15.30;;;11.40;99.90;;;;;;10511021;28;20265;-86
2022/12/06 15:04:58;;;;;;;24.07;16.37;;;11.40;99.90;;;;;;10509647;28;20243;-86
2022/12/06 15:10:24;;;;;;;30.37;18.47;;;11.00;99.90;;;;;;10496256;28;20279;-86
2022/12/06 15:15:34;;;;;;;25.70;16.23;;;10.80;99.90;;;;;;10489875;28;20242;-86
2022/12/06 15:20:36;;;;;;;24.00;15.63;;;10.80;99.90;;;;;;10493509;28;20291;-86
2022/12/06 15:25:39;;;;;;;28.00;16.83;;;11.10;99.90;;;;;;10476040;28;20299;-86
2022/12/06 15:30:41;;;;;;;24.00;15.53;;;11.40;99.90;;;;;;10476013;28;20748;-86
2022/12/06 15:35:44;;;;;;;22.90;15.00;;;11.60;99.90;;;;;;10494692;28;20275;-85
2022/12/06 15:40:48;;;;;;;25.57;15.07;;;11.40;99.90;;;;;;10475642;28;20242;-86
2022/12/06 15:45:51;;;;;;;24.73;14.77;;;11.10;99.90;;;;;;10476242;28;20586;-86
2022/12/06 15:50:55;;;;;;;22.97;13.27;;;10.70;99.90;;;;;;10476082;28;20234;-86
2022/12/06 15:55:57;;;;;;;23.73;15.03;;;11.00;99.90;;;;;;10493705;28;20922;-86
2022/12/06 16:01:00;;;;;;;24.00;15.17;;;11.10;99.90;;;;;;10493696;28;20789;-86
2022/12/06 16:06:02;;;;;;;19.20;13.67;;;11.60;99.90;;;;;;10494731;28;20230;-86
2022/12/06 16:11:06;;;;;;;25.10;15.47;;;11.80;99.90;;;;;;10477384;28;20229;-85
2022/12/06 16:16:15;;;;;;;19.60;14.00;;;11.80;99.90;;;;;;10476840;28;20267;-81
2022/12/06 16:21:27;;;;;;;26.40;18.00;;;11.80;99.90;;;;;;10486310;28;20262;-80
2022/12/06 16:26:31;;;;;;;29.00;18.73;;;10.20;97.80;;;;;;10474858;28;20260;-81
2022/12/06 16:31:35;;;;;;;35.30;21.00;;;6.40;99.90;;;;;;10474730;28;20238;-80
2022/12/06 16:37:00;;;;;;;39.80;22.57;;;4.90;99.90;;;;;;10492623;28;20690;-81
2022/12/06 16:42:03;;;;;;;36.80;22.70;;;4.20;99.90;;;;;;10491061;28;20274;-81
2022/12/06 16:47:06;;;;;;;37.73;22.00;;;3.80;99.90;;;;;;10499173;28;20233;-80
2022/12/06 16:52:09;;;;;;;40.97;23.07;;;3.40;99.90;;;;;;10492958;28;20229;-80
2022/12/06 16:57:12;;;;;;;44.60;26.07;;;3.20;99.90;;;;;;10495277;28;20228;-80
2022/12/06 17:02:27;;;;;;;47.50;26.40;;;3.00;99.90;;;;;;10492207;28;20259;-80
2022/12/06 17:07:30;;;;;;;53.70;27.63;;;2.90;99.90;;;;;;10472912;28;20226;-80
2022/12/06 17:12:32;;;;;;;53.00;27.50;;;2.90;99.90;;;;;;10475739;28;20280;-80
2022/12/06 17:17:35;;;;;;;44.23;24.37;;;2.80;99.90;;;;;;10489605;28;20957;-80
2022/12/06 17:22:38;;;;;;;48.57;25.33;;;2.70;99.90;;;;;;10448790;28;20262;-80
2022/12/06 17:27:41;;;;;;;42.90;23.77;;;2.70;99.90;;;;;;10495360;28;20222;-79
2022/12/06 17:32:45;;;;;;;36.73;23.33;;;2.60;99.90;;;;;;10161201;28;10000628;-80
2022/12/06 17:37:50;;;;;;;44.73;26.00;;;2.60;99.90;;;;;;10511750;28;20220;-80
2022/12/06 17:42:58;;;;;;;40.87;24.93;;;2.60;99.90;;;;;;10527871;28;20300;-80
2022/12/06 17:48:00;;;;;;;46.73;25.60;;;2.60;99.90;;;;;;10472232;28;20277;-80
2022/12/06 17:53:03;;;;;;;49.73;27.57;;;2.60;99.90;;;;;;10564036;28;20225;-80
2022/12/06 17:58:05;;;;;;;47.97;27.97;;;2.50;99.90;;;;;;10533808;28;20289;-79
2022/12/06 18:03:08;;;;;;;56.37;32.50;;;2.50;99.90;;;;;;10533925;28;20260;-80
2022/12/06 18:08:10;;;;;;;51.30;30.50;;;2.50;99.90;;;;;;10510512;28;20289;-80
2022/12/06 18:13:12;;;;;;;49.07;27.40;;;2.50;99.90;;;;;;10527761;28;20234;-80
2022/12/06 18:18:15;;;;;;;50.90;29.20;;;2.50;99.90;;;;;;10522924;28;20638;-80
2022/12/06 18:23:17;;;;;;;33.30;19.80;;;3.60;99.90;;;;;;10524936;28;20263;-80
2022/12/06 18:28:20;;;;;;;32.13;18.40;;;4.10;99.90;;;;;;10459598;28;20246;-80
2022/12/06 18:33:22;;;;;;;25.87;14.07;;;6.50;99.90;;;;;;10512367;28;20279;-80
2022/12/06 18:38:32;;;;;;;23.07;13.03;;;8.30;99.90;;;;;;10485392;28;20307;-80
2022/12/06 18:43:35;;;;;;;18.30;13.17;;;8.60;99.90;;;;;;10487061;28;20265;-81
2022/12/06 18:48:39;;;;;;;19.60;11.27;;;;;;;;;;10498421;28;20261;-80
2022/12/06 18:53:42;;;;;;;14.50;10.17;;;9.90;99.90;;;;;;10528020;28;20276;-81
2022/12/06 18:58:45;;;;;;;14.00;10.70;;;10.60;99.90;;;;;;10531505;28;20322;-80
2022/12/06 19:03:49;;;;;;;20.60;11.63;;;10.80;99.90;;;;;;10536172;28;20288;-81
2022/12/06 19:08:54;;;;;;;18.30;11.30;;;10.90;99.90;;;;;;10536793;28;20302;-80
2022/12/06 19:14:00;;;;;;;16.63;10.90;;;11.20;99.90;;;;;;10560171;27;20616;-80
2022/12/06 19:19:05;;;;;;;15.03;10.03;;;11.40;99.90;;;;;;10535141;28;20248;-80
2022/12/06 19:24:16;;;;;;;15.57;10.43;;;12.30;99.90;;;;;;10535320;28;20656;-81
2022/12/06 19:29:19;;;;;;;14.50;10.13;;;;;;;;;;10512544;28;20241;-80
2022/12/06 19:34:24;;;;;;;15.47;10.93;;;12.90;99.90;;;;;;10535068;28;20678;-80
2022/12/06 19:39:26;;;;;;;71.23;44.97;;;12.70;99.90;;;;;;10523590;28;20706;-81
2022/12/06 19:44:29;;;;;;;144.60;89.07;;;12.60;99.90;;;;;;10531848;28;20233;-82
2022/12/06 19:49:32;;;;;;;113.37;75.63;;;13.80;99.90;;;;;;10536401;28;20202;-82
2022/12/06 19:54:36;;;;;;;94.40;62.43;;;13.20;99.90;;;;;;10537184;28;20267;-82
2022/12/06 19:59:38;;;;;;;96.53;59.13;;;12.70;99.90;;;;;;10519495;28;20257;-83
2022/12/06 20:04:41;;;;;;;82.67;53.50;;;12.70;99.90;;;;;;10535836;28;20213;-82
2022/12/06 20:09:43;;;;;;;49.17;36.77;;;13.10;99.90;;;;;;10538235;28;20260;-82
2022/12/06 20:14:47;;;;;;;52.53;37.60;;;12.60;99.90;;;;;;10535307;28;20296;-81
2022/12/06 20:19:50;;;;;;;17.37;12.93;;;12.20;99.90;;;;;;10534667;28;20241;-82
2022/12/06 20:24:52;;;;;;;24.10;14.97;;;9.50;98.70;;;;;;10535009;28;20278;-82
2022/12/06 20:29:55;;;;;;;24.97;14.63;;;6.20;99.90;;;;;;10531431;28;20986;-82
2022/12/06 20:34:57;;;;;;;25.83;17.20;;;4.50;99.90;;;;;;10498847;28;20237;-82
2022/12/06 20:40:00;;;;;;;29.37;16.50;;;3.80;99.90;;;;;;10533774;28;20249;-82
2022/12/06 20:45:03;;;;;;;31.17;18.50;;;3.10;99.90;;;;;;10534134;28;20236;-81
2022/12/06 20:50:06;;;;;;;30.63;17.23;;;2.80;99.90;;;;;;10534897;28;20652;-81
2022/12/06 20:55:09;;;;;;;26.80;17.43;;;2.60;99.90;;;;;;10516554;28;20286;-81
2022/12/06 21:00:12;;;;;;;31.50;18.13;;;2.40;99.90;;;;;;10499057;28;20270;-82
2022/12/06 21:05:16;;;;;;;33.37;19.03;;;;;;;;;;10514170;28;20192;-81
2022/12/06 21:10:20;;;;;;;33.30;19.80;;;2.30;99.90;;;;;;10533053;28;20728;-81
2022/12/06 21:15:22;;;;;;;29.67;18.07;;;2.30;99.90;;;;;;10514417;28;20252;-81
2022/12/06 21:20:25;;;;;;;36.00;24.17;;;2.20;99.90;;;;;;10513707;28;20449;-82
2022/12/06 21:25:27;;;;;;;37.73;20.50;;;2.20;99.90;;;;;;10529325;28;20218;-81
2022/12/06 21:30:30;;;;;;;26.40;16.10;;;2.10;99.90;;;;;;10547836;28;20747;-81
2022/12/06 21:35:33;;;;;;;29.93;17.27;;;2.20;99.90;;;;;;10516756;28;20230;-82
2022/12/06 21:40:36;;;;;;;30.43;17.10;;;2.10;99.90;;;;;;10516929;28;20256;-82
2022/12/06 21:45:39;;;;;;;27.13;15.60;;;2.20;99.90;;;;;;10547502;28;20196;-81
2022/12/06 21:50:42;;;;;;;29.27;15.57;;;2.20;99.90;;;;;;10537116;28;20227;-81
2022/12/06 21:55:44;;;;;;;22.47;13.90;;;2.20;99.90;;;;;;10549275;28;20279;-81
2022/12/06 22:00:47;;;;;;;22.73;14.33;;;2.30;99.90;;;;;;10481963;28;20321;-80
2022/12/06 22:05:49;;;;;;;18.23;12.00;;;2.20;99.90;;;;;;10513874;28;20559;-81
2022/12/06 22:10:51;;;;;;;22.70;13.37;;;2.20;99.90;;;;;;10517709;28;20296;-81
2022/12/06 22:15:54;;;;;;;20.30;12.13;;;2.10;99.90;;;;;;10513120;28;20246;-81
2022/12/06 22:21:02;;;;;;;25.53;16.07;;;2.10;99.90;;;;;;10517216;28;20259;-82
2022/12/06 22:26:07;;;;;;;29.20;15.33;;;2.10;99.90;;;;;;10504779;28;20569;-81
2022/12/06 22:31:13;;;;;;;16.43;10.23;;;2.10;99.90;;;;;;10503971;28;20288;-81
2022/12/06 22:36:18;;;;;;;15.23;10.03;;;2.10;99.90;;;;;;10519742;28;20371;-81
2022/12/06 22:41:22;;;;;;;15.47;9.90;;;2.10;99.90;;;;;;10536507;28;20288;-81
2022/12/06 22:46:26;;;;;;;22.67;12.30;;;2.00;99.90;;;;;;10550529;27;20225;-81
2022/12/06 22:51:37;;;;;;;15.23;11.67;;;6.20;99.90;;;;;;10547865;28;20241;-82
2022/12/06 22:56:46;;;;;;;13.53;9.63;;;7.60;99.90;;;;;;10518607;28;20237;-82
2022/12/06 23:01:49;;;;;;;17.10;10.23;;;9.40;99.90;;;;;;10536813;28;20269;-82
2022/12/06 23:06:52;;;;;;;11.70;8.83;;;10.00;99.90;;;;;;10537028;28;20254;-82
2022/12/06 23:11:54;;;;;;;13.47;9.23;;;10.20;99.90;;;;;;10521931;28;20226;-82
2022/12/06 23:16:57;;;;;;;11.97;8.77;;;10.80;99.90;;;;;;10537794;28;20673;-82
2022/12/06 23:21:59;;;;;;;13.97;9.13;;;11.40;99.90;;;;;;10516499;28;20264;-82
2022/12/06 23:27:02;;;;;;;9.90;8.33;;;11.90;99.90;;;;;;10523298;28;20229;-82
2022/12/06 23:32:05;;;;;;;10.67;8.30;;;12.30;99.90;;;;;;10503414;28;20286;-82
2022/12/06 23:37:08;;;;;;;9.70;8.13;;;12.30;99.90;;;;;;10516312;28;20654;-82
2022/12/06 23:42:10;;;;;;;10.77;8.37;;;12.60;99.90;;;;;;10502579;28;20313;-82
2022/12/06 23:47:13;;;;;;;12.20;8.03;;;12.50;99.90;;;;;;10517818;28;20225;-82
2022/12/06 23:52:15;;;;;;;8.90;7.33;;;12.00;99.90;;;;;;10501084;28;20613;-81
2022/12/06 23:57:18;;;;;;;9.80;7.93;;;12.50;99.90;;;;;;10498136;28;20217;-81
